Time,TemperatureF,DewpointF,PressureIn,WindDirection,WindDirectionDegrees,WindSpeedMPH,WindSpeedGustMPH,Humidity,HourlyPrecipIn,Conditions,Clouds,dailyrainin,SoftwareType,DateUTC
2013-06-26 00:02:00,80.1,73.4,29.73,ESE,108,0.0,0.0,80,0.00,,SKC,0.00,VWS V13.01,2013-06-26 05:02:00,
2013-06-26 00:07:00,79.9,73.2,29.73,ESE,111,0.0,0.0,80,0.00,,SKC,0.00,VWS V13.01,2013-06-26 05:07:00,
2013-06-26 00:12:00,79.8,73.1,29.73,ESE,123,0.0,0.0,80,0.00,,SKC,0.00,VWS V13.01,2013-06-26 05:12:00,
2013-06-26 00:17:00,79.7,73.4,29.73,ESE,123,0.0,0.0,81,0.00,,SKC,0.00,VWS V13.01,2013-06-26 05:17:00,
2013-06-26 00:22:00,79.6,73.3,29.73,SE,124,0.0,0.0,81,0.00,,SKC,0.00,VWS V13.01,2013-06-26 05:22:00,
2013-06-26 00:27:00,79.5,73.2,29.73,SE,124,0.0,0.0,81,0.00,,SKC,0.00,VWS V13.01,2013-06-26 05:27:00,
2013-06-26 00:32:00,79.3,73.0,29.72,East,93,0.0,0.0,81,0.00,,SKC,0.00,VWS V13.01,2013-06-26 05:32:00,
2013-06-26 00:38:00,79.2,73.2,29.73,East,93,0.0,0.0,82,0.00,,SKC,0.00,VWS V13.01,2013-06-26 05:38:00,
2013-06-26 00:43:00,79.1,73.1,29.73,East,94,0.0,0.0,82,0.00,,SKC,0.00,VWS V13.01,2013-06-26 05:43:00,
2013-06-26 00:48:00,79.0,73.0,29.72,East,94,0.0,0.0,82,0.00,,SKC,0.00,VWS V13.01,2013-06-26 05:48:00,
2013-06-26 00:53:00,78.9,72.9,29.72,East,95,0.0,0.0,82,0.00,,SKC,0.00,VWS V13.01,2013-06-26 05:53:00,
2013-06-26 00:58:00,78.8,72.8,29.72,East,95,0.0,0.0,82,0.00,,SKC,0.00,VWS V13.01,2013-06-26 05:58:00,
2013-06-26 01:03:00,78.7,72.8,29.72,East,95,0.0,0.0,82,0.00,,SKC,0.00,VWS V13.01,2013-06-26 06:03:00,
2013-06-26 01:08:00,78.6,72.7,29.72,East,96,0.0,0.0,82,0.00,,SKC,0.00,VWS V13.01,2013-06-26 06:08:00,
2013-06-26 01:13:00,78.5,72.9,29.72,East,99,0.0,0.0,83,0.00,,SKC,0.00,VWS V13.01,2013-06-26 06:13:00,
2013-06-26 01:18:00,78.3,72.7,29.72,East,99,0.0,0.0,83,0.00,,SKC,0.00,VWS V13.01,2013-06-26 06:18:00,
2013-06-26 01:23:00,78.2,72.6,29.72,East,99,0.0,0.0,83,0.00,,SKC,0.00,VWS V13.01,2013-06-26 06:23:00,
2013-06-26 01:28:00,78.0,72.4,29.72,East,99,0.0,0.0,83,0.00,,SKC,0.00,VWS V13.01,2013-06-26 06:28:00,
2013-06-26 01:33:00,77.9,72.7,29.72,East,99,0.0,0.0,84,0.00,,SKC,0.00,VWS V13.01,2013-06-26 06:33:00,
2013-06-26 01:38:00,77.7,72.5,29.72,East,99,0.0,0.0,84,0.00,,SKC,0.00,VWS V13.01,2013-06-26 06:38:00,
2013-06-26 01:43:00,77.6,72.4,29.72,East,99,0.0,0.0,84,0.00,,SKC,0.00,VWS V13.01,2013-06-26 06:43:00,
2013-06-26 01:48:00,77.5,72.3,29.72,East,99,0.0,0.0,84,0.00,,SKC,0.00,VWS V13.01,2013-06-26 06:48:00,
2013-06-26 01:53:00,77.3,72.4,29.72,East,99,0.0,0.0,85,0.00,,SKC,0.00,VWS V13.01,2013-06-26 06:53:00,
2013-06-26 01:58:00,77.1,72.2,29.72,East,99,0.0,0.0,85,0.00,,SKC,0.00,VWS V13.01,2013-06-26 06:58:00,
2013-06-26 02:03:00,77.0,72.2,29.72,East,99,0.0,0.0,85,0.00,,SKC,0.00,VWS V13.01,2013-06-26 07:03:00,
2013-06-26 02:08:00,76.8,72.3,29.72,East,99,0.0,0.0,86,0.00,,SKC,0.00,VWS V13.01,2013-06-26 07:08:00,
2013-06-26 02:13:00,76.6,72.1,29.72,East,99,0.0,0.0,86,0.00,,SKC,0.00,VWS V13.01,2013-06-26 07:13:00,
2013-06-26 02:18:00,76.4,71.9,29.72,East,99,0.0,0.0,86,0.00,,SKC,0.00,VWS V13.01,2013-06-26 07:18:00,
2013-06-26 02:23:00,76.3,72.2,29.72,East,99,0.0,0.0,87,0.00,,SKC,0.00,VWS V13.01,2013-06-26 07:23:00,
2013-06-26 02:28:00,76.1,71.9,29.72,East,99,0.0,0.0,87,0.00,,SKC,0.00,VWS V13.01,2013-06-26 07:28:00,
2013-06-26 02:33:00,76.0,71.9,29.72,East,99,0.0,0.0,87,0.00,,SKC,0.00,VWS V13.01,2013-06-26 07:33:00,
2013-06-26 02:38:00,75.8,72.0,29.72,East,99,0.0,0.0,88,0.00,,SKC,0.00,VWS V13.01,2013-06-26 07:38:00,
2013-06-26 02:43:00,75.6,71.8,29.72,East,99,0.0,0.0,88,0.00,,SKC,0.00,VWS V13.01,2013-06-26 07:43:00,
2013-06-26 02:48:00,75.5,71.7,29.72,East,99,0.0,0.0,88,0.00,,SKC,0.00,VWS V13.01,2013-06-26 07:48:00,
2013-06-26 02:53:00,75.4,71.6,29.72,East,99,0.0,0.0,88,0.00,,SKC,0.00,VWS V13.01,2013-06-26 07:53:00,
2013-06-26 02:58:00,75.3,71.8,29.72,SE,139,0.0,0.0,89,0.00,,SKC,0.00,VWS V13.01,2013-06-26 07:58:00,
2013-06-26 03:03:00,75.2,71.7,29.72,SE,139,0.0,0.0,89,0.00,,SKC,0.00,VWS V13.01,2013-06-26 08:03:00,
2013-06-26 03:08:00,75.2,71.7,29.72,South,186,0.0,0.0,89,0.00,,SKC,0.00,VWS V13.01,2013-06-26 08:08:00,
2013-06-26 03:13:00,75.2,71.7,29.73,SSW,212,0.0,0.0,89,0.00,,SKC,0.00,VWS V13.01,2013-06-26 08:13:00,
2013-06-26 03:18:00,75.1,72.0,29.72,SW,214,0.0,0.0,90,0.00,,SKC,0.00,VWS V13.01,2013-06-26 08:18:00,
2013-06-26 03:23:00,75.1,72.0,29.72,SW,224,0.0,0.0,90,0.00,,SKC,0.00,VWS V13.01,2013-06-26 08:23:00,
2013-06-26 03:28:00,75.0,71.9,29.73,SW,224,0.0,0.0,90,0.00,,SKC,0.00,VWS V13.01,2013-06-26 08:28:00,
2013-06-26 03:33:00,75.0,71.9,29.73,SW,224,0.0,0.0,90,0.00,,SKC,0.00,VWS V13.01,2013-06-26 08:33:00,
2013-06-26 03:38:00,74.9,71.8,29.73,SW,224,0.0,0.0,90,0.00,,SKC,0.00,VWS V13.01,2013-06-26 08:38:00,
2013-06-26 03:43:00,74.9,71.8,29.73,SW,224,0.0,0.0,90,0.00,,SKC,0.00,VWS V13.01,2013-06-26 08:43:00,
2013-06-26 03:48:00,74.8,71.7,29.73,SW,224,0.0,0.0,90,0.00,,SKC,0.00,VWS V13.01,2013-06-26 08:48:00,
2013-06-26 03:53:00,74.8,71.7,29.73,SW,224,0.0,0.0,90,0.00,,SKC,0.00,VWS V13.01,2013-06-26 08:53:00,
2013-06-26 03:58:00,74.8,71.7,29.73,WNW,297,4.0,5.0,90,0.00,,SKC,0.00,VWS V13.01,2013-06-26 08:58:00,
2013-06-26 04:03:00,74.9,72.1,29.73,WNW,297,0.0,4.0,91,0.00,,SKC,0.00,VWS V13.01,2013-06-26 09:03:00,
2013-06-26 04:08:00,75.0,72.2,29.74,WNW,297,1.0,5.0,91,0.00,,SKC,0.00,VWS V13.01,2013-06-26 09:08:00,
2013-06-26 04:13:00,75.2,72.4,29.74,WNW,288,1.0,7.0,91,0.00,,SKC,0.00,VWS V13.01,2013-06-26 09:13:00,
2013-06-26 04:18:00,75.5,72.7,29.74,West,274,5.0,7.0,91,0.00,,SKC,0.00,VWS V13.01,2013-06-26 09:18:00,
2013-06-26 04:23:00,75.6,72.8,29.74,West,281,4.0,5.0,91,0.00,,SKC,0.00,VWS V13.01,2013-06-26 09:23:00,
2013-06-26 04:28:00,75.8,73.0,29.74,WNW,286,4.0,6.0,91,0.00,,SKC,0.00,VWS V13.01,2013-06-26 09:28:00,
2013-06-26 04:33:00,75.9,73.1,29.74,WNW,292,4.0,4.0,91,0.00,,SKC,0.00,VWS V13.01,2013-06-26 09:33:00,
2013-06-26 04:38:00,75.9,73.1,29.74,WNW,287,0.0,0.0,91,0.00,,SKC,0.00,VWS V13.01,2013-06-26 09:38:00,
2013-06-26 04:43:00,75.9,73.1,29.74,WNW,291,2.0,5.0,91,0.00,,SKC,0.00,VWS V13.01,2013-06-26 09:43:00,
2013-06-26 04:48:00,76.0,73.2,29.75,WNW,289,2.0,7.0,91,0.00,,SKC,0.00,VWS V13.01,2013-06-26 09:48:00,
2013-06-26 04:53:00,76.0,73.2,29.75,WNW,292,0.0,0.0,91,0.00,,SKC,0.00,VWS V13.01,2013-06-26 09:53:00,
2013-06-26 04:58:00,76.0,73.2,29.75,WNW,303,0.0,0.0,91,0.00,,SKC,0.00,VWS V13.01,2013-06-26 09:58:00,
2013-06-26 05:03:00,76.0,73.2,29.76,NW,304,0.0,0.0,91,0.00,,SKC,0.00,VWS V13.01,2013-06-26 10:03:00,
2013-06-26 05:08:00,76.0,73.2,29.76,NW,305,6.0,7.0,91,0.00,,SKC,0.00,VWS V13.01,2013-06-26 10:08:00,
2013-06-26 05:13:00,75.9,73.1,29.76,NW,305,0.0,0.0,91,0.00,,SKC,0.00,VWS V13.01,2013-06-26 10:13:00,
2013-06-26 05:18:00,75.9,73.1,29.76,NW,304,0.0,5.0,91,0.00,,SKC,0.00,VWS V13.01,2013-06-26 10:18:00,
2013-06-26 05:23:00,76.0,73.2,29.76,NW,305,0.0,0.0,91,0.00,,SKC,0.00,VWS V13.01,2013-06-26 10:23:00,
2013-06-26 05:28:00,76.1,73.3,29.77,WNW,289,0.0,6.0,91,0.00,,SKC,0.00,VWS V13.01,2013-06-26 10:28:00,
2013-06-26 05:33:00,76.1,73.3,29.76,WNW,284,5.0,7.0,91,0.00,,SKC,0.00,VWS V13.01,2013-06-26 10:33:00,
2013-06-26 05:38:00,76.2,73.1,29.77,WNW,302,5.0,12.0,90,0.00,,SKC,0.00,VWS V13.01,2013-06-26 10:38:00,
2013-06-26 05:43:00,76.2,73.1,29.77,NW,304,6.0,6.0,90,0.00,,SKC,0.00,VWS V13.01,2013-06-26 10:43:00,
2013-06-26 05:48:00,76.3,73.2,29.77,WNW,299,2.0,4.0,90,0.00,,SKC,0.00,VWS V13.01,2013-06-26 10:48:00,
2013-06-26 05:53:00,76.2,73.1,29.77,NW,322,4.0,7.0,90,0.00,,SKC,0.00,VWS V13.01,2013-06-26 10:53:00,
2013-06-26 05:58:00,76.2,72.7,29.77,WNW,296,7.0,7.0,89,0.00,,SKC,0.00,VWS V13.01,2013-06-26 10:58:00,
2013-06-26 06:03:00,76.2,72.7,29.78,WNW,301,6.0,11.0,89,0.00,,SKC,0.00,VWS V13.01,2013-06-26 11:03:00,
2013-06-26 06:08:00,76.3,72.8,29.78,WNW,301,2.0,8.0,89,0.00,,SKC,0.00,VWS V13.01,2013-06-26 11:08:00,
2013-06-26 06:13:00,76.4,72.6,29.79,NW,311,4.0,7.0,88,0.00,,SKC,0.00,VWS V13.01,2013-06-26 11:13:00,
2013-06-26 06:18:00,76.4,72.2,29.79,NW,313,0.0,6.0,87,0.00,,SKC,0.00,VWS V13.01,2013-06-26 11:18:00,
2013-06-26 06:23:00,76.3,71.8,29.79,NW,305,8.0,13.0,86,0.00,,SKC,0.00,VWS V13.01,2013-06-26 11:23:00,
2013-06-26 06:28:00,76.3,71.8,29.79,WNW,297,2.0,6.0,86,0.00,,SKC,0.00,VWS V13.01,2013-06-26 11:28:00,
2013-06-26 06:33:00,76.3,71.1,29.80,WNW,291,1.0,5.0,84,0.00,,SKC,0.00,VWS V13.01,2013-06-26 11:33:00,
2013-06-26 06:38:00,76.4,71.2,29.79,WNW,297,5.0,7.0,84,0.00,,SKC,0.00,VWS V13.01,2013-06-26 11:38:00,
2013-06-26 06:43:00,76.5,70.6,29.80,WNW,292,0.0,4.0,82,0.00,,SKC,0.00,VWS V13.01,2013-06-26 11:43:00,
2013-06-26 06:48:00,76.5,70.6,29.79,WNW,302,1.0,7.0,82,0.00,,SKC,0.00,VWS V13.01,2013-06-26 11:48:00,
2013-06-26 06:53:00,76.6,70.3,29.80,NNW,340,0.0,1.0,81,0.00,,SKC,0.00,VWS V13.01,2013-06-26 11:53:00,
2013-06-26 06:58:00,76.7,70.4,29.80,NW,306,1.0,5.0,81,0.00,,SKC,0.00,VWS V13.01,2013-06-26 11:58:00,
2013-06-26 07:03:00,76.7,70.1,29.80,North,358,1.0,5.0,80,0.00,,SKC,0.00,VWS V13.01,2013-06-26 12:03:00,
2013-06-26 07:08:00,76.9,69.9,29.80,NW,322,1.0,1.0,79,0.00,,SKC,0.00,VWS V13.01,2013-06-26 12:08:00,
2013-06-26 07:13:00,77.0,69.6,29.81,WNW,299,0.0,4.0,78,0.00,,SKC,0.00,VWS V13.01,2013-06-26 12:13:00,
2013-06-26 07:18:00,77.1,69.7,29.81,NW,311,0.0,6.0,78,0.00,,SKC,0.00,VWS V13.01,2013-06-26 12:18:00,
2013-06-26 07:23:00,77.1,69.3,29.81,WNW,285,0.0,6.0,77,0.00,,SKC,0.00,VWS V13.01,2013-06-26 12:23:00,
2013-06-26 07:28:00,77.2,69.4,29.81,WNW,300,0.0,4.0,77,0.00,,SKC,0.00,VWS V13.01,2013-06-26 12:28:00,
2013-06-26 07:33:00,77.4,69.6,29.81,NW,312,0.0,0.0,77,0.00,,SKC,0.00,VWS V13.01,2013-06-26 12:33:00,
2013-06-26 07:38:00,77.5,69.3,29.82,WNW,297,0.0,0.0,76,0.00,,SKC,0.00,VWS V13.01,2013-06-26 12:38:00,
2013-06-26 07:43:00,77.5,69.0,29.82,WNW,299,0.0,8.0,75,0.00,,SKC,0.00,VWS V13.01,2013-06-26 12:43:00,
2013-06-26 07:48:00,77.6,69.1,29.82,NW,311,0.0,6.0,75,0.00,,SKC,0.00,VWS V13.01,2013-06-26 12:48:00,
2013-06-26 07:53:00,77.6,69.1,29.82,WNW,298,1.0,1.0,75,0.00,,SKC,0.00,VWS V13.01,2013-06-26 12:53:00,
2013-06-26 07:58:00,77.7,69.2,29.83,NW,318,0.0,1.0,75,0.00,,SKC,0.00,VWS V13.01,2013-06-26 12:58:00,
2013-06-26 08:03:00,77.8,69.2,29.83,NW,320,0.0,8.0,75,0.00,,SKC,0.00,VWS V13.01,2013-06-26 13:03:00,
2013-06-26 08:08:00,77.8,69.2,29.83,NW,324,0.0,1.0,75,0.00,,SKC,0.00,VWS V13.01,2013-06-26 13:08:00,
2013-06-26 08:13:00,78.1,69.5,29.83,North,358,8.0,9.0,75,0.00,,SKC,0.00,VWS V13.01,2013-06-26 13:13:00,
2013-06-26 08:19:00,78.4,69.8,29.83,NNE,12,1.0,10.0,75,0.00,,SKC,0.00,VWS V13.01,2013-06-26 13:19:00,
2013-06-26 08:24:00,78.6,69.6,29.84,NW,305,7.0,15.0,74,0.00,,SKC,0.00,VWS V13.01,2013-06-26 13:24:00,
2013-06-26 08:29:00,78.8,69.8,29.84,NNE,15,0.0,3.0,74,0.00,,SKC,0.00,VWS V13.01,2013-06-26 13:29:00,
2013-06-26 08:34:00,79.1,70.1,29.84,North,3,0.0,9.0,74,0.00,,SKC,0.00,VWS V13.01,2013-06-26 13:34:00,
2013-06-26 08:39:00,79.2,69.8,29.84,WNW,297,4.0,8.0,73,0.00,,SKC,0.00,VWS V13.01,2013-06-26 13:39:00,
2013-06-26 08:44:00,79.3,69.9,29.84,North,3,14.0,14.0,73,0.00,,SKC,0.00,VWS V13.01,2013-06-26 13:44:00,
2013-06-26 08:49:00,79.7,69.9,29.84,North,354,8.0,15.0,72,0.00,,SKC,0.00,VWS V13.01,2013-06-26 13:49:00,
2013-06-26 08:54:00,80.0,69.8,29.85,NNW,341,7.0,11.0,71,0.00,,SKC,0.00,VWS V13.01,2013-06-26 13:54:00,
2013-06-26 08:59:00,80.3,70.1,29.85,WSW,258,5.0,7.0,71,0.00,,SKC,0.00,VWS V13.01,2013-06-26 13:59:00,
2013-06-26 09:04:00,80.5,69.8,29.85,NW,318,0.0,1.0,70,0.00,,SKC,0.00,VWS V13.01,2013-06-26 14:04:00,
2013-06-26 09:09:00,80.6,69.9,29.85,NW,326,6.0,16.0,70,0.00,,SKC,0.00,VWS V13.01,2013-06-26 14:09:00,
2013-06-26 09:15:00,81.0,69.4,29.85,North,8,4.0,10.0,68,0.00,,SKC,0.00,VWS V13.01,2013-06-26 14:15:00,
2013-06-26 09:20:00,81.4,69.8,29.85,North,358,2.0,5.0,68,0.00,,SKC,0.00,VWS V13.01,2013-06-26 14:20:00,
2013-06-26 09:25:00,81.7,70.1,29.85,WNW,294,0.0,11.0,68,0.00,,SKC,0.00,VWS V13.01,2013-06-26 14:25:00,
2013-06-26 09:30:00,81.8,70.2,29.86,North,354,0.0,5.0,68,0.00,,SKC,0.00,VWS V13.01,2013-06-26 14:30:00,
2013-06-26 09:36:00,82.0,70.4,29.86,WNW,299,2.0,12.0,68,0.00,,SKC,0.00,VWS V13.01,2013-06-26 14:36:00,
2013-06-26 09:41:00,82.0,70.0,29.86,NW,311,6.0,6.0,67,0.00,,SKC,0.00,VWS V13.01,2013-06-26 14:41:00,
2013-06-26 09:46:00,82.1,70.1,29.86,North,349,1.0,12.0,67,0.00,,SKC,0.00,VWS V13.01,2013-06-26 14:46:00,
2013-06-26 09:51:00,82.3,69.8,29.86,NE,49,0.0,19.0,66,0.00,,SKC,0.00,VWS V13.01,2013-06-26 14:51:00,
2013-06-26 09:56:00,82.5,69.6,29.86,WNW,293,2.0,16.0,65,0.00,,SKC,0.00,VWS V13.01,2013-06-26 14:56:00,
2013-06-26 10:01:00,82.7,69.8,29.86,North,3,1.0,2.0,65,0.00,,SKC,0.00,VWS V13.01,2013-06-26 15:01:00,
2013-06-26 10:06:00,83.1,69.2,29.85,NNE,18,2.0,11.0,63,0.00,,SKC,0.00,VWS V13.01,2013-06-26 15:06:00,
2013-06-26 10:11:00,83.8,69.9,29.85,NW,316,2.0,5.0,63,0.00,,SKC,0.00,VWS V13.01,2013-06-26 15:11:00,
2013-06-26 10:17:00,84.5,69.6,29.86,North,358,6.0,7.0,61,0.00,,SKC,0.00,VWS V13.01,2013-06-26 15:17:00,
2013-06-26 10:22:00,85.0,69.6,29.86,NNE,27,0.0,7.0,60,0.00,,SKC,0.00,VWS V13.01,2013-06-26 15:22:00,
2013-06-26 10:27:00,85.1,68.2,29.86,WNW,303,11.0,11.0,57,0.00,,SKC,0.00,VWS V13.01,2013-06-26 15:27:00,
2013-06-26 10:32:00,85.1,68.2,29.86,NE,52,2.0,6.0,57,0.00,,SKC,0.00,VWS V13.01,2013-06-26 15:32:00,
2013-06-26 10:37:00,85.2,67.8,29.86,NNE,18,3.0,11.0,56,0.00,,SKC,0.00,VWS V13.01,2013-06-26 15:37:00,
2013-06-26 10:42:00,85.5,68.0,29.86,NNE,19,5.0,12.0,56,0.00,,SKC,0.00,VWS V13.01,2013-06-26 15:42:00,
2013-06-26 10:47:00,85.8,67.8,29.87,WNW,291,4.0,8.0,55,0.00,,SKC,0.00,VWS V13.01,2013-06-26 15:47:00,
2013-06-26 10:52:00,86.1,68.6,29.87,WNW,283,0.0,4.0,56,0.00,,SKC,0.00,VWS V13.01,2013-06-26 15:52:00,
2013-06-26 10:57:00,86.1,67.5,29.87,NW,306,7.0,11.0,54,0.00,,SKC,0.00,VWS V13.01,2013-06-26 15:57:00,
2013-06-26 11:02:00,86.6,68.5,29.88,NNE,26,3.0,7.0,55,0.00,,SKC,0.00,VWS V13.01,2013-06-26 16:02:00,
2013-06-26 11:07:00,87.0,67.8,29.88,WNW,295,1.0,7.0,53,0.00,,SKC,0.00,VWS V13.01,2013-06-26 16:07:00,
2013-06-26 11:12:00,86.8,68.2,29.88,North,358,6.0,8.0,54,0.00,,SKC,0.00,VWS V13.01,2013-06-26 16:12:00,
2013-06-26 11:17:00,86.8,68.7,29.88,WNW,300,0.0,1.0,55,0.00,,SKC,0.00,VWS V13.01,2013-06-26 16:17:00,
2013-06-26 11:22:00,87.4,68.7,29.88,NNW,330,1.0,11.0,54,0.00,,SKC,0.00,VWS V13.01,2013-06-26 16:22:00,
2013-06-26 11:27:00,87.6,67.8,29.89,West,280,1.0,15.0,52,0.00,,SKC,0.00,VWS V13.01,2013-06-26 16:27:00,
2013-06-26 11:32:00,87.4,68.7,29.89,NNW,336,1.0,2.0,54,0.00,,SKC,0.00,VWS V13.01,2013-06-26 16:32:00,
2013-06-26 11:37:00,87.5,68.3,29.89,NW,309,1.0,4.0,53,0.00,,SKC,0.00,VWS V13.01,2013-06-26 16:37:00,
2013-06-26 11:42:00,87.3,68.1,29.89,NNW,328,2.0,5.0,53,0.00,,SKC,0.00,VWS V13.01,2013-06-26 16:42:00,
2013-06-26 11:47:00,87.2,69.1,29.89,North,354,4.0,5.0,55,0.00,,SKC,0.00,VWS V13.01,2013-06-26 16:47:00,
2013-06-26 11:52:00,89.2,69.3,29.89,North,3,3.0,6.0,52,0.00,,SKC,0.00,VWS V13.01,2013-06-26 16:52:00,
2013-06-26 11:57:00,90.9,69.7,29.89,NW,313,1.0,5.0,50,0.00,,SKC,0.00,VWS V13.01,2013-06-26 16:57:00,
2013-06-26 12:02:00,90.8,69.0,29.89,NW,307,5.0,7.0,49,0.00,,SKC,0.00,VWS V13.01,2013-06-26 17:02:00,
2013-06-26 12:07:00,90.3,67.3,29.89,NW,314,6.0,8.0,47,0.00,,SKC,0.00,VWS V13.01,2013-06-26 17:07:00,
2013-06-26 12:12:00,89.9,67.0,29.89,NW,317,8.0,11.0,47,0.00,,SKC,0.00,VWS V13.01,2013-06-26 17:12:00,
2013-06-26 12:17:00,89.8,68.7,29.90,NNE,12,0.0,3.0,50,0.00,,SKC,0.00,VWS V13.01,2013-06-26 17:17:00,
2013-06-26 12:22:00,91.4,69.6,29.90,North,358,0.0,2.0,49,0.00,,SKC,0.00,VWS V13.01,2013-06-26 17:22:00,
2013-06-26 12:27:00,91.9,70.0,29.90,NW,324,2.0,2.0,49,0.00,,SKC,0.00,VWS V13.01,2013-06-26 17:27:00,
2013-06-26 12:32:00,91.7,69.2,29.90,NW,309,1.0,5.0,48,0.00,,SKC,0.00,VWS V13.01,2013-06-26 17:32:00,
2013-06-26 12:37:00,91.4,68.3,29.90,NNW,333,1.0,4.0,47,0.00,,SKC,0.00,VWS V13.01,2013-06-26 17:37:00,
2013-06-26 12:42:00,91.5,67.8,29.90,WNW,289,1.0,7.0,46,0.00,,SKC,0.00,VWS V13.01,2013-06-26 17:42:00,
2013-06-26 12:47:00,90.9,68.5,29.90,WNW,295,0.0,4.0,48,0.00,,SKC,0.00,VWS V13.01,2013-06-26 17:47:00,
2013-06-26 12:52:00,90.8,66.6,29.90,NNE,33,2.0,12.0,45,0.00,,SKC,0.00,VWS V13.01,2013-06-26 17:52:00,
2013-06-26 12:57:00,91.9,67.5,29.90,NNW,333,0.0,6.0,45,0.00,,SKC,0.00,VWS V13.01,2013-06-26 17:57:00,
2013-06-26 13:02:00,92.8,67.7,29.90,WNW,302,1.0,7.0,44,0.00,,SKC,0.00,VWS V13.01,2013-06-26 18:02:00,
2013-06-26 13:07:00,92.3,67.2,29.90,NW,324,1.0,10.0,44,0.00,,SKC,0.00,VWS V13.01,2013-06-26 18:07:00,
2013-06-26 13:12:00,92.5,67.4,29.90,NNW,341,4.0,6.0,44,0.00,,SKC,0.00,VWS V13.01,2013-06-26 18:12:00,
2013-06-26 13:17:00,92.7,66.3,29.90,NW,306,7.0,8.0,42,0.00,,SKC,0.00,VWS V13.01,2013-06-26 18:17:00,
2013-06-26 13:22:00,92.4,68.0,29.90,NW,305,4.0,7.0,45,0.00,,SKC,0.00,VWS V13.01,2013-06-26 18:22:00,
2013-06-26 13:27:00,92.3,67.9,29.90,NW,305,2.0,9.0,45,0.00,,SKC,0.00,VWS V13.01,2013-06-26 18:27:00,
2013-06-26 13:32:00,93.0,66.5,29.90,NW,314,8.0,16.0,42,0.00,,SKC,0.00,VWS V13.01,2013-06-26 18:32:00,
2013-06-26 13:38:00,92.8,65.7,29.90,West,264,2.0,9.0,41,0.00,,SKC,0.00,VWS V13.01,2013-06-26 18:38:00,
2013-06-26 13:43:00,92.2,65.8,29.90,NNW,330,1.0,9.0,42,0.00,,SKC,0.00,VWS V13.01,2013-06-26 18:43:00,
2013-06-26 13:48:00,92.5,64.7,29.90,WNW,287,1.0,11.0,40,0.00,,SKC,0.00,VWS V13.01,2013-06-26 18:48:00,
2013-06-26 13:53:00,92.2,66.5,29.90,NNE,32,0.0,3.0,43,0.00,,SKC,0.00,VWS V13.01,2013-06-26 18:53:00,
2013-06-26 13:58:00,92.9,65.0,29.90,NW,305,1.0,13.0,40,0.00,,SKC,0.00,VWS V13.01,2013-06-26 18:58:00,
2013-06-26 14:03:00,92.6,64.1,29.90,NW,318,2.0,8.0,39,0.00,,SKC,0.00,VWS V13.01,2013-06-26 19:03:00,
2013-06-26 14:08:00,92.6,65.5,29.89,West,261,2.0,5.0,41,0.00,,SKC,0.00,VWS V13.01,2013-06-26 19:08:00,
2013-06-26 14:13:00,92.2,65.1,29.90,WNW,295,1.0,11.0,41,0.00,,SKC,0.00,VWS V13.01,2013-06-26 19:13:00,
2013-06-26 14:18:00,93.0,67.2,29.90,North,354,0.0,7.0,43,0.00,,SKC,0.00,VWS V13.01,2013-06-26 19:18:00,
2013-06-26 14:23:00,93.5,64.8,29.90,WNW,302,2.0,7.0,39,0.00,,SKC,0.00,VWS V13.01,2013-06-26 19:23:00,
2013-06-26 14:28:00,92.5,65.4,29.90,North,358,0.0,8.0,41,0.00,,SKC,0.00,VWS V13.01,2013-06-26 19:28:00,
2013-06-26 14:34:00,91.7,64.7,29.90,NNE,27,1.0,4.0,41,0.00,,SKC,0.00,VWS V13.01,2013-06-26 19:34:00,
2013-06-26 14:40:00,92.7,65.6,29.90,WNW,293,0.0,4.0,41,0.00,,SKC,0.00,VWS V13.01,2013-06-26 19:40:00,
2013-06-26 14:45:00,94.5,66.5,29.90,NW,320,2.0,8.0,40,0.00,,SKC,0.00,VWS V13.01,2013-06-26 19:45:00,
2013-06-26 14:50:00,96.2,66.5,29.90,NNW,345,6.0,7.0,38,0.00,,SKC,0.00,VWS V13.01,2013-06-26 19:50:00,
2013-06-26 14:55:00,96.3,65.0,29.89,NNE,24,0.0,3.0,36,0.00,,SKC,0.00,VWS V13.01,2013-06-26 19:55:00,
2013-06-26 15:00:00,95.3,64.9,29.89,NW,323,0.0,2.0,37,0.00,,SKC,0.00,VWS V13.01,2013-06-26 20:00:00,
2013-06-26 15:05:00,94.1,64.6,29.89,WNW,291,4.0,4.0,38,0.00,,SKC,0.00,VWS V13.01,2013-06-26 20:05:00,
2013-06-26 15:10:00,93.3,64.7,29.89,WNW,289,5.0,6.0,39,0.00,,SKC,0.00,VWS V13.01,2013-06-26 20:10:00,
2013-06-26 15:15:00,92.9,65.0,29.89,WNW,293,0.0,2.0,40,0.00,,SKC,0.00,VWS V13.01,2013-06-26 20:15:00,
2013-06-26 15:20:00,93.2,65.3,29.89,NW,321,7.0,8.0,40,0.00,,SKC,0.00,VWS V13.01,2013-06-26 20:20:00,
2013-06-26 15:25:00,94.2,67.6,29.89,NNW,336,0.0,1.0,42,0.00,,SKC,0.00,VWS V13.01,2013-06-26 20:25:00,
2013-06-26 15:30:00,96.9,67.1,29.89,NNW,340,0.0,6.0,38,0.00,,SKC,0.00,VWS V13.01,2013-06-26 20:30:00,
2013-06-26 15:35:00,96.9,66.3,29.89,NW,308,4.0,9.0,37,0.00,,SKC,0.00,VWS V13.01,2013-06-26 20:35:00,
2013-06-26 15:40:00,96.3,67.3,29.88,North,358,2.0,2.0,39,0.00,,SKC,0.00,VWS V13.01,2013-06-26 20:40:00,
2013-06-26 15:45:00,97.3,67.5,29.89,NW,326,6.0,7.0,38,0.00,,SKC,0.00,VWS V13.01,2013-06-26 20:45:00,
2013-06-26 15:50:00,96.7,65.4,29.89,NW,320,5.0,8.0,36,0.00,,SKC,0.00,VWS V13.01,2013-06-26 20:50:00,
2013-06-26 15:55:00,95.6,64.4,29.89,WNW,290,4.0,11.0,36,0.00,,SKC,0.00,VWS V13.01,2013-06-26 20:55:00,
2013-06-26 16:00:00,95.0,63.9,29.88,WNW,295,6.0,7.0,36,0.00,,SKC,0.00,VWS V13.01,2013-06-26 21:00:00,
2013-06-26 16:05:00,95.0,64.7,29.88,NNW,336,1.0,4.0,37,0.00,,SKC,0.00,VWS V13.01,2013-06-26 21:05:00,
2013-06-26 16:10:00,96.2,63.3,29.89,NW,308,0.0,5.0,34,0.00,,SKC,0.00,VWS V13.01,2013-06-26 21:10:00,
2013-06-26 16:15:00,97.0,64.8,29.89,NW,314,0.0,1.0,35,0.00,,SKC,0.00,VWS V13.01,2013-06-26 21:15:00,
2013-06-26 16:20:00,97.8,65.5,29.89,NW,312,0.0,5.0,35,0.00,,SKC,0.00,VWS V13.01,2013-06-26 21:20:00,
2013-06-26 16:25:00,98.3,65.1,29.88,NNW,343,0.0,2.0,34,0.00,,SKC,0.00,VWS V13.01,2013-06-26 21:25:00,
2013-06-26 16:30:00,97.8,63.8,29.88,WNW,291,0.0,5.0,33,0.00,,SKC,0.00,VWS V13.01,2013-06-26 21:30:00,
2013-06-26 16:35:00,97.6,64.5,29.88,WNW,299,8.0,8.0,34,0.00,,SKC,0.00,VWS V13.01,2013-06-26 21:35:00,
2013-06-26 16:40:00,97.3,66.7,29.88,NW,309,5.0,8.0,37,0.00,,SKC,0.00,VWS V13.01,2013-06-26 21:40:00,
2013-06-26 16:45:00,97.0,64.8,29.88,NW,305,6.0,6.0,35,0.00,,SKC,0.00,VWS V13.01,2013-06-26 21:45:00,
2013-06-26 16:50:00,97.2,64.2,29.89,WNW,302,7.0,12.0,34,0.00,,SKC,0.00,VWS V13.01,2013-06-26 21:50:00,
2013-06-26 16:55:00,96.9,63.9,29.88,NW,317,2.0,5.0,34,0.00,,SKC,0.00,VWS V13.01,2013-06-26 21:55:00,
2013-06-26 17:01:00,96.5,63.6,29.88,WNW,303,1.0,6.0,34,0.00,,SKC,0.00,VWS V13.01,2013-06-26 22:01:00,
2013-06-26 17:06:00,95.9,63.9,29.88,NW,311,2.0,6.0,35,0.00,,SKC,0.00,VWS V13.01,2013-06-26 22:06:00,
2013-06-26 17:11:00,95.8,63.0,29.88,NW,318,1.0,6.0,34,0.00,,SKC,0.00,VWS V13.01,2013-06-26 22:11:00,
2013-06-26 17:16:00,95.1,64.8,29.88,NW,320,2.0,4.0,37,0.00,,SKC,0.00,VWS V13.01,2013-06-26 22:16:00,
2013-06-26 17:21:00,95.0,64.7,29.88,WNW,292,4.0,6.0,37,0.00,,SKC,0.00,VWS V13.01,2013-06-26 22:21:00,
2013-06-26 17:26:00,95.0,64.7,29.88,NW,313,4.0,4.0,37,0.00,,SKC,0.00,VWS V13.01,2013-06-26 22:26:00,
2013-06-26 17:31:00,95.2,65.6,29.88,WNW,297,4.0,5.0,38,0.00,,SKC,0.00,VWS V13.01,2013-06-26 22:31:00,
2013-06-26 17:36:00,95.2,64.1,29.88,WNW,300,1.0,4.0,36,0.00,,SKC,0.00,VWS V13.01,2013-06-26 22:36:00,
2013-06-26 17:41:00,94.9,63.8,29.88,NW,307,2.0,8.0,36,0.00,,SKC,0.00,VWS V13.01,2013-06-26 22:41:00,
2013-06-26 17:46:00,95.4,63.4,29.88,NW,304,4.0,9.0,35,0.00,,SKC,0.00,VWS V13.01,2013-06-26 22:46:00,
2013-06-26 17:51:00,95.7,64.5,29.89,NW,320,0.0,5.0,36,0.00,,SKC,0.00,VWS V13.01,2013-06-26 22:51:00,
2013-06-26 17:56:00,96.2,64.1,29.88,NW,318,1.0,4.0,35,0.00,,SKC,0.00,VWS V13.01,2013-06-26 22:56:00,
2013-06-26 18:01:00,95.8,63.8,29.88,WNW,287,2.0,5.0,35,0.00,,SKC,0.00,VWS V13.01,2013-06-26 23:01:00,
2013-06-26 18:06:00,95.7,64.5,29.89,NW,323,0.0,2.0,36,0.00,,SKC,0.00,VWS V13.01,2013-06-26 23:06:00,
2013-06-26 18:11:00,96.6,66.8,29.89,NW,323,2.0,2.0,38,0.00,,SKC,0.00,VWS V13.01,2013-06-26 23:11:00,
2013-06-26 18:16:00,97.6,67.0,29.89,NNW,328,0.0,2.0,37,0.00,,SKC,0.00,VWS V13.01,2013-06-26 23:16:00,
2013-06-26 18:21:00,98.0,65.7,29.89,NNW,345,0.0,2.0,35,0.00,,SKC,0.00,VWS V13.01,2013-06-26 23:21:00,
2013-06-26 18:26:00,97.8,63.8,29.89,NNW,335,0.0,0.0,33,0.00,,SKC,0.00,VWS V13.01,2013-06-26 23:26:00,
2013-06-26 18:31:00,98.0,66.5,29.89,NNW,339,0.0,1.0,36,0.00,,SKC,0.00,VWS V13.01,2013-06-26 23:31:00,
2013-06-26 18:37:00,98.6,66.2,29.89,NNE,14,0.0,1.0,35,0.00,,SKC,0.00,VWS V13.01,2013-06-26 23:37:00,
2013-06-26 18:43:00,99.3,66.8,29.89,NW,321,2.0,2.0,35,0.00,,SKC,0.00,VWS V13.01,2013-06-26 23:43:00,
2013-06-26 18:48:00,99.1,64.1,29.89,NW,322,2.0,6.0,32,0.00,,SKC,0.00,VWS V13.01,2013-06-26 23:48:00,
2013-06-26 18:53:00,98.5,63.6,29.89,North,351,0.0,4.0,32,0.00,,SKC,0.00,VWS V13.01,2013-06-26 23:53:00,
2013-06-26 18:58:00,98.6,64.5,29.89,North,351,0.0,1.0,33,0.00,,SKC,0.00,VWS V13.01,2013-06-26 23:58:00,
2013-06-26 19:03:00,98.5,64.4,29.89,NNW,347,0.0,5.0,33,0.00,,SKC,0.00,VWS V13.01,2013-06-27 00:03:00,
2013-06-26 19:08:00,98.5,66.1,29.89,NNW,330,6.0,6.0,35,0.00,,SKC,0.00,VWS V13.01,2013-06-27 00:08:00,
2013-06-26 19:13:00,97.9,66.4,29.89,WNW,302,1.0,2.0,36,0.00,,SKC,0.00,VWS V13.01,2013-06-27 00:13:00,
2013-06-26 19:18:00,97.3,65.1,29.89,WNW,302,0.0,2.0,35,0.00,,SKC,0.00,VWS V13.01,2013-06-27 00:18:00,
2013-06-26 19:23:00,96.7,66.2,29.89,WNW,302,0.0,0.0,37,0.00,,SKC,0.00,VWS V13.01,2013-06-27 00:23:00,
2013-06-26 19:28:00,96.6,66.8,29.89,WNW,302,1.0,1.0,38,0.00,,SKC,0.00,VWS V13.01,2013-06-27 00:28:00,
2013-06-26 19:33:00,96.4,65.9,29.89,WNW,302,0.0,0.0,37,0.00,,SKC,0.00,VWS V13.01,2013-06-27 00:33:00,
2013-06-26 19:38:00,96.3,65.8,29.90,WNW,302,0.0,0.0,37,0.00,,SKC,0.00,VWS V13.01,2013-06-27 00:38:00,
2013-06-26 19:43:00,96.3,65.8,29.90,WNW,302,0.0,0.0,37,0.00,,SKC,0.00,VWS V13.01,2013-06-27 00:43:00,
2013-06-26 19:48:00,96.0,64.8,29.89,WNW,302,0.0,0.0,36,0.00,,SKC,0.00,VWS V13.01,2013-06-27 00:48:00,
2013-06-26 19:53:00,95.6,65.2,29.89,WNW,302,0.0,4.0,37,0.00,,SKC,0.00,VWS V13.01,2013-06-27 00:53:00,
2013-06-26 19:58:00,95.0,65.4,29.89,WNW,302,0.0,0.0,38,0.00,,SKC,0.00,VWS V13.01,2013-06-27 00:58:00,
2013-06-26 20:03:00,94.7,65.9,29.90,WNW,302,0.0,0.0,39,0.00,,SKC,0.00,VWS V13.01,2013-06-27 01:03:00,
2013-06-26 20:08:00,94.6,65.8,29.89,WNW,302,0.0,0.0,39,0.00,,SKC,0.00,VWS V13.01,2013-06-27 01:08:00,
2013-06-26 20:13:00,94.2,65.5,29.89,WNW,302,0.0,0.0,39,0.00,,SKC,0.00,VWS V13.01,2013-06-27 01:13:00,
2013-06-26 20:18:00,93.6,65.7,29.89,WNW,302,0.0,0.0,40,0.00,,SKC,0.00,VWS V13.01,2013-06-27 01:18:00,
2013-06-26 20:23:00,93.1,66.6,29.89,WNW,302,0.0,0.0,42,0.00,,SKC,0.00,VWS V13.01,2013-06-27 01:23:00,
2013-06-26 20:28:00,92.6,66.2,29.89,WNW,302,0.0,0.0,42,0.00,,SKC,0.00,VWS V13.01,2013-06-27 01:28:00,
2013-06-26 20:33:00,92.0,66.3,29.89,WNW,302,0.0,0.0,43,0.00,,SKC,0.00,VWS V13.01,2013-06-27 01:33:00,
2013-06-26 20:38:00,91.3,65.7,29.90,WNW,302,0.0,0.0,43,0.00,,SKC,0.00,VWS V13.01,2013-06-27 01:38:00,
2013-06-26 20:43:00,90.5,66.9,29.90,WNW,302,0.0,0.0,46,0.00,,SKC,0.00,VWS V13.01,2013-06-27 01:43:00,
2013-06-26 20:48:00,89.9,67.0,29.90,WNW,302,0.0,0.0,47,0.00,,SKC,0.00,VWS V13.01,2013-06-27 01:48:00,
2013-06-26 20:53:00,89.4,66.5,29.90,WNW,302,0.0,0.0,47,0.00,,SKC,0.00,VWS V13.01,2013-06-27 01:53:00,
2013-06-26 20:58:00,88.9,66.1,29.90,WNW,302,0.0,0.0,47,0.00,,SKC,0.00,VWS V13.01,2013-06-27 01:58:00,
2013-06-26 21:03:00,88.5,66.3,29.90,WNW,302,0.0,0.0,48,0.00,,SKC,0.00,VWS V13.01,2013-06-27 02:03:00,
2013-06-26 21:08:00,88.0,66.5,29.90,WNW,302,0.0,0.0,49,0.00,,SKC,0.00,VWS V13.01,2013-06-27 02:08:00,
2013-06-26 21:13:00,87.5,66.6,29.90,WNW,302,0.0,0.0,50,0.00,,SKC,0.00,VWS V13.01,2013-06-27 02:13:00,
2013-06-26 21:18:00,86.9,66.0,29.90,WNW,302,0.0,0.0,50,0.00,,SKC,0.00,VWS V13.01,2013-06-27 02:18:00,
2013-06-26 21:23:00,86.3,65.5,29.90,WNW,302,0.0,0.0,50,0.00,,SKC,0.00,VWS V13.01,2013-06-27 02:23:00,
2013-06-26 21:28:00,85.8,65.0,29.90,WNW,302,0.0,0.0,50,0.00,,SKC,0.00,VWS V13.01,2013-06-27 02:28:00,
2013-06-26 21:33:00,85.1,65.0,29.90,WNW,302,0.0,0.0,51,0.00,,SKC,0.00,VWS V13.01,2013-06-27 02:33:00,
2013-06-26 21:38:00,84.6,65.1,29.90,WNW,302,0.0,0.0,52,0.00,,SKC,0.00,VWS V13.01,2013-06-27 02:38:00,
2013-06-26 21:43:00,84.1,64.0,29.90,WNW,302,0.0,0.0,51,0.00,,SKC,0.00,VWS V13.01,2013-06-27 02:43:00,
2013-06-26 21:48:00,83.6,64.7,29.90,WNW,302,0.0,0.0,53,0.00,,SKC,0.00,VWS V13.01,2013-06-27 02:48:00,
2013-06-26 21:53:00,83.1,64.2,29.91,WNW,302,0.0,0.0,53,0.00,,SKC,0.00,VWS V13.01,2013-06-27 02:53:00,
2013-06-26 21:58:00,82.5,64.7,29.91,WNW,302,0.0,0.0,55,0.00,,SKC,0.00,VWS V13.01,2013-06-27 02:58:00,
2013-06-26 22:03:00,82.0,64.3,29.91,WNW,302,0.0,0.0,55,0.00,,SKC,0.00,VWS V13.01,2013-06-27 03:03:00,
2013-06-26 22:08:00,81.5,63.8,29.92,WNW,302,0.0,0.0,55,0.00,,SKC,0.00,VWS V13.01,2013-06-27 03:08:00,
2013-06-26 22:13:00,81.1,63.9,29.92,WNW,302,0.0,0.0,56,0.00,,SKC,0.00,VWS V13.01,2013-06-27 03:13:00,
2013-06-26 22:18:00,80.8,64.2,29.92,WNW,302,0.0,0.0,57,0.00,,SKC,0.00,VWS V13.01,2013-06-27 03:18:00,
2013-06-26 22:23:00,80.5,63.9,29.92,WNW,302,0.0,0.0,57,0.00,,SKC,0.00,VWS V13.01,2013-06-27 03:23:00,
2013-06-26 22:28:00,80.1,64.0,29.92,WNW,302,0.0,0.0,58,0.00,,SKC,0.00,VWS V13.01,2013-06-27 03:28:00,
2013-06-26 22:33:00,79.7,63.6,29.92,WNW,302,0.0,0.0,58,0.00,,SKC,0.00,VWS V13.01,2013-06-27 03:33:00,
2013-06-26 22:38:00,79.3,63.7,29.92,WNW,302,0.0,0.0,59,0.00,,SKC,0.00,VWS V13.01,2013-06-27 03:38:00,
2013-06-26 22:43:00,79.0,63.9,29.92,WNW,302,0.0,0.0,60,0.00,,SKC,0.00,VWS V13.01,2013-06-27 03:43:00,
2013-06-26 22:48:00,78.7,63.7,29.92,WNW,302,0.0,0.0,60,0.00,,SKC,0.00,VWS V13.01,2013-06-27 03:48:00,
2013-06-26 22:53:00,78.4,63.8,29.92,WNW,302,0.0,0.0,61,0.00,,SKC,0.00,VWS V13.01,2013-06-27 03:53:00,
2013-06-26 22:58:00,78.0,63.9,29.92,WNW,302,0.0,0.0,62,0.00,,SKC,0.00,VWS V13.01,2013-06-27 03:58:00,
2013-06-26 23:01:00,77.8,63.8,29.92,WNW,302,0.0,0.0,62,0.00,,SKC,0.00,VWS V13.01,2013-06-27 04:01:00,
2013-06-26 23:02:00,77.7,63.7,29.93,WNW,302,0.0,0.0,62,0.00,,SKC,0.00,VWS V13.01,2013-06-27 04:02:00,
2013-06-26 23:03:00,77.6,64.0,29.93,WNW,302,0.0,0.0,63,0.00,,SKC,0.00,VWS V13.01,2013-06-27 04:03:00,
2013-06-26 23:04:00,77.5,63.9,29.93,WNW,302,0.0,0.0,63,0.00,,SKC,0.00,VWS V13.01,2013-06-27 04:04:00,
2013-06-26 23:09:00,77.1,64.0,29.93,WNW,302,0.0,0.0,64,0.00,,SKC,0.00,VWS V13.01,2013-06-27 04:09:00,
2013-06-26 23:14:00,76.6,64.0,29.93,WNW,302,0.0,0.0,65,0.00,,SKC,0.00,VWS V13.01,2013-06-27 04:14:00,
2013-06-26 23:19:00,76.3,63.7,29.93,WNW,302,0.0,0.0,65,0.00,,SKC,0.00,VWS V13.01,2013-06-27 04:19:00,
2013-06-26 23:24:00,76.0,63.4,29.93,WNW,302,0.0,0.0,65,0.00,,SKC,0.00,VWS V13.01,2013-06-27 04:24:00,
2013-06-26 23:28:00,75.8,63.6,29.93,WNW,302,0.0,0.0,66,0.00,,SKC,0.00,VWS V13.01,2013-06-27 04:28:00,
2013-06-26 23:33:00,75.6,63.5,29.93,WNW,302,0.0,0.0,66,0.00,,SKC,0.00,VWS V13.01,2013-06-27 04:33:00,
2013-06-26 23:38:00,75.3,63.6,29.93,WNW,302,0.0,0.0,67,0.00,,SKC,0.00,VWS V13.01,2013-06-27 04:38:00,
2013-06-26 23:44:00,75.1,63.8,29.94,WNW,302,0.0,0.0,68,0.00,,SKC,0.00,VWS V13.01,2013-06-27 04:44:00,
2013-06-26 23:49:00,74.9,63.6,29.93,WNW,302,0.0,0.0,68,0.00,,SKC,0.00,VWS V13.01,2013-06-27 04:49:00,
2013-06-26 23:54:00,74.7,63.9,29.93,WNW,302,0.0,0.0,69,0.00,,SKC,0.00,VWS V13.01,2013-06-27 04:54:00,